Time;durP1;ratioP1;P1;durP2;ratioP2;P2;SDS_P1;SDS_P2;PMS_P1;PMS_P2;Temp;Humidity;BMP_temperature;BMP_pressure;BME280_temperature;BME280_humidity;BME280_pressure;Samples;Min_cycle;Max_cycle;Signal;HPM_P1;HPM_P2
2021/05/21 00:01:08;;;;;;;17.00;8.27;;;5.40;99.90;;;;;;4430182;28;657865;-69
2021/05/21 00:03:55;;;;;;;16.50;8.43;;;5.40;99.90;;;;;;4443956;28;656866;-70
2021/05/21 00:06:42;;;;;;;18.70;8.17;;;5.40;99.90;;;;;;4422212;28;656517;-70
2021/05/21 00:09:29;;;;;;;17.90;9.00;;;5.40;99.90;;;;;;4452036;28;657210;-69
2021/05/21 00:12:18;;;;;;;18.40;9.50;;;5.40;99.90;;;;;;4448232;28;656672;-69
2021/05/21 00:15:07;;;;;;;21.43;9.77;;;5.40;99.90;;;;;;4425673;28;656526;-69
2021/05/21 00:17:54;;;;;;;20.10;10.27;;;5.40;99.90;;;;;;4422091;28;657297;-69
2021/05/21 00:20:41;;;;;;;23.60;11.83;;;5.40;99.90;;;;;;4447148;28;657691;-69
2021/05/21 00:23:28;;;;;;;19.07;10.13;;;5.40;99.90;;;;;;4428637;28;657595;-69
2021/05/21 00:26:15;;;;;;;22.27;9.93;;;5.40;99.90;;;;;;4448012;28;658334;-69
2021/05/21 00:29:04;;;;;;;18.77;10.03;;;5.40;99.90;;;;;;4436951;28;657593;-71
2021/05/21 00:31:50;;;;;;;16.37;9.37;;;5.40;99.90;;;;;;4446452;28;658319;-69
2021/05/21 00:34:37;;;;;;;18.80;10.23;;;5.40;99.90;;;;;;4428912;28;656963;-71
2021/05/21 00:37:24;;;;;;;25.27;12.43;;;5.40;99.90;;;;;;4445715;28;658673;-69
2021/05/21 00:40:12;;;;;;;20.73;10.97;;;5.40;99.90;;;;;;4447066;28;657981;-69
2021/05/21 00:42:59;;;;;;;26.40;12.40;;;5.40;99.90;;;;;;4417494;28;658369;-69
2021/05/21 00:45:47;;;;;;;31.05;15.55;;;5.40;99.90;;;;;;4443147;28;657556;-69
2021/05/21 00:48:34;;;;;;;29.80;16.03;;;5.40;99.90;;;;;;4428427;28;658087;-69
2021/05/21 00:51:21;;;;;;;26.23;13.88;;;5.40;99.90;;;;;;4446742;28;657638;-69
2021/05/21 00:54:08;;;;;;;27.07;14.47;;;5.40;99.90;;;;;;4427683;28;657733;-69
2021/05/21 00:56:55;;;;;;;24.90;13.67;;;5.40;99.90;;;;;;4447229;28;658190;-69
2021/05/21 00:59:42;;;;;;;22.77;12.93;;;5.40;99.90;;;;;;4430377;28;657959;-71
2021/05/21 01:02:30;;;;;;;23.63;12.83;;;5.40;99.90;;;;;;4445520;28;657965;-69
2021/05/21 01:05:17;;;;;;;24.97;13.33;;;5.30;99.90;;;;;;4427205;28;657950;-71
2021/05/21 01:08:05;;;;;;;25.92;15.35;;;5.40;99.90;;;;;;4445743;28;657739;-69
2021/05/21 01:10:52;;;;;;;27.87;14.07;;;5.40;99.90;;;;;;4435164;28;658339;-71
2021/05/21 01:13:39;;;;;;;26.30;14.63;;;5.40;99.90;;;;;;4446272;28;658805;-69
2021/05/21 01:16:26;;;;;;;30.07;15.47;;;5.40;99.90;;;;;;4446701;28;657799;-68
2021/05/21 01:19:14;;;;;;;29.17;15.37;;;5.40;99.90;;;;;;4423911;28;657346;-69
2021/05/21 01:22:03;;;;;;;35.22;16.15;;;5.40;99.90;;;;;;4445622;28;657448;-69
2021/05/21 01:24:50;;;;;;;31.03;18.43;;;5.40;99.90;;;;;;4418781;28;658012;-69
2021/05/21 01:27:37;;;;;;;40.63;22.00;;;5.40;99.90;;;;;;4438671;28;658049;-71
2021/05/21 01:30:25;;;;;;;32.93;19.53;;;5.40;99.90;;;;;;4450733;28;658036;-69
2021/05/21 01:33:12;;;;;;;35.93;19.27;;;5.40;99.90;;;;;;4437297;28;657904;-71
2021/05/21 01:35:59;;;;;;;41.93;23.00;;;5.40;99.90;;;;;;4449824;28;658231;-69
2021/05/21 01:39:00;;;;;;;47.67;26.87;;;5.50;99.90;;;;;;4449388;28;658317;-69
2021/05/21 01:41:48;;;;;;;51.30;26.57;;;5.50;99.90;;;;;;4426638;28;657150;-70
2021/05/21 01:44:35;;;;;;;38.77;23.47;;;5.50;99.90;;;;;;4447334;28;658696;-69
2021/05/21 01:47:22;;;;;;;38.23;23.40;;;5.50;99.90;;;;;;4440557;28;657366;-70
2021/05/21 01:50:10;;;;;;;39.67;21.93;;;5.50;99.90;;;;;;4449759;28;657653;-69
2021/05/21 01:52:58;;;;;;;36.17;21.20;;;5.50;99.90;;;;;;4420801;28;658053;-69
2021/05/21 01:55:51;;;;;;;36.07;22.00;;;5.50;99.90;;;;;;4440500;28;659243;-69
2021/05/21 01:58:38;;;;;;;40.77;22.90;;;5.50;99.90;;;;;;4395034;28;657969;-69
2021/05/21 02:01:25;;;;;;;42.60;23.03;;;5.50;99.90;;;;;;4448326;28;657759;-68
2021/05/21 02:04:12;;;;;;;46.53;25.97;;;5.50;99.90;;;;;;4438719;28;657231;-70
2021/05/21 02:06:59;;;;;;;41.80;25.30;;;5.50;99.90;;;;;;4449651;28;659002;-69
2021/05/21 02:09:54;;;;;;;44.65;26.38;;;5.50;99.90;;;;;;4449035;28;657931;-69
2021/05/21 02:12:43;;;;;;;45.57;27.33;;;5.50;99.90;;;;;;4415512;28;657595;-68
2021/05/21 02:15:30;;;;;;;45.30;27.63;;;5.50;99.90;;;;;;4423292;28;658787;-68
2021/05/21 02:18:17;;;;;;;49.93;30.03;;;5.50;99.90;;;;;;4426327;28;657952;-71
2021/05/21 02:21:05;;;;;;;49.03;29.50;;;5.50;99.90;;;;;;4445067;28;659134;-69
2021/05/21 02:23:52;;;;;;;52.20;31.27;;;5.50;99.90;;;;;;4434957;28;657652;-70
2021/05/21 02:26:39;;;;;;;56.90;31.03;;;5.50;99.90;;;;;;4441970;28;657585;-68
2021/05/21 02:29:27;;;;;;;54.10;31.23;;;5.50;99.90;;;;;;4443660;28;657778;-68
2021/05/21 02:32:14;;;;;;;55.20;32.43;;;5.50;99.90;;;;;;4415151;28;658618;-68
2021/05/21 02:35:01;;;;;;;55.20;31.73;;;5.50;99.90;;;;;;4447811;28;657780;-68
2021/05/21 02:37:48;;;;;;;47.97;29.63;;;5.50;99.90;;;;;;4424438;28;657814;-68
2021/05/21 02:40:35;;;;;;;60.37;32.80;;;5.50;99.90;;;;;;4446473;28;658357;-68
2021/05/21 02:43:22;;;;;;;55.83;31.48;;;5.50;99.90;;;;;;4430672;28;657234;-69
2021/05/21 02:46:10;;;;;;;52.63;30.97;;;5.50;99.90;;;;;;4449570;28;658194;-69
2021/05/21 02:48:57;;;;;;;53.80;31.60;;;5.50;99.90;;;;;;4411647;28;657313;-70
2021/05/21 02:51:44;;;;;;;50.00;28.53;;;5.50;99.90;;;;;;4445099;28;657763;-68
2021/05/21 02:54:31;;;;;;;48.60;25.87;;;5.50;99.90;;;;;;4436467;28;658011;-68
2021/05/21 02:57:21;;;;;;;38.80;23.87;;;5.60;99.90;;;;;;4425092;28;658032;-68
2021/05/21 03:00:09;;;;;;;39.17;23.43;;;5.60;99.90;;;;;;4426040;28;657638;-68
2021/05/21 03:02:57;;;;;;;38.70;22.70;;;5.60;99.90;;;;;;4444902;28;657815;-68
2021/05/21 03:05:44;;;;;;;35.67;21.07;;;5.60;99.90;;;;;;4409502;28;658859;-68
2021/05/21 03:08:31;;;;;;;35.23;20.80;;;5.70;99.90;;;;;;4445784;28;657533;-68
2021/05/21 03:11:18;;;;;;;35.23;18.70;;;5.70;99.90;;;;;;4425240;28;657725;-68
2021/05/21 03:14:05;;;;;;;30.70;17.20;;;5.70;99.90;;;;;;4441886;28;657670;-68
2021/05/21 03:16:52;;;;;;;34.17;20.35;;;5.70;99.90;;;;;;4430792;28;657842;-70
2021/05/21 03:19:40;;;;;;;32.28;19.30;;;5.80;99.90;;;;;;4449330;28;657807;-67
2021/05/21 03:22:27;;;;;;;37.33;20.33;;;5.80;99.90;;;;;;4427787;28;658120;-69
2021/05/21 03:25:15;;;;;;;31.33;17.77;;;5.90;99.90;;;;;;4452401;28;658255;-68
2021/05/21 03:28:02;;;;;;;27.60;16.57;;;5.90;99.90;;;;;;4441472;28;658185;-69
2021/05/21 03:30:49;;;;;;;30.93;17.50;;;6.00;99.90;;;;;;4447092;28;658254;-68
2021/05/21 03:33:36;;;;;;;30.43;16.90;;;6.00;99.90;;;;;;4444066;28;658276;-68
2021/05/21 03:36:24;;;;;;;27.10;15.37;;;6.00;99.90;;;;;;4422997;28;657120;-70
2021/05/21 03:39:11;;;;;;;27.60;16.40;;;6.10;99.90;;;;;;4445309;28;658115;-68
2021/05/21 03:41:58;;;;;;;26.00;15.43;;;6.20;99.90;;;;;;4428966;28;657767;-68
2021/05/21 03:44:45;;;;;;;27.50;16.20;;;6.20;99.90;;;;;;4443289;28;658147;-68
2021/05/21 03:47:33;;;;;;;27.15;15.88;;;6.20;99.90;;;;;;4428897;28;657042;-70
2021/05/21 03:50:21;;;;;;;29.63;16.93;;;6.20;99.90;;;;;;4445750;28;658870;-68
2021/05/21 03:53:09;;;;;;;31.30;16.63;;;6.30;99.90;;;;;;4427372;28;657696;-68
2021/05/21 03:55:56;;;;;;;26.93;17.53;;;6.30;99.90;;;;;;4446921;28;657674;-68
2021/05/21 03:58:44;;;;;;;26.50;16.33;;;6.30;99.90;;;;;;4428851;28;657749;-68
2021/05/21 04:01:31;;;;;;;29.00;16.27;;;6.40;99.90;;;;;;4448098;28;657534;-68
2021/05/21 04:04:18;;;;;;;28.30;17.17;;;6.40;99.90;;;;;;4428433;28;657957;-68
2021/05/21 04:07:05;;;;;;;35.83;19.03;;;6.40;99.90;;;;;;4447311;28;658225;-68
2021/05/21 04:09:53;;;;;;;31.43;18.13;;;6.50;99.90;;;;;;4443040;28;658972;-70
2021/05/21 04:12:40;;;;;;;30.17;19.07;;;6.60;99.90;;;;;;4447616;28;657660;-68
2021/05/21 04:15:27;;;;;;;29.10;17.50;;;6.70;99.90;;;;;;4428121;28;657720;-69
2021/05/21 04:18:15;;;;;;;31.13;17.90;;;6.80;99.90;;;;;;4443100;28;658483;-68
2021/05/21 04:21:02;;;;;;;29.80;17.70;;;6.90;99.90;;;;;;4444906;28;657567;-70
2021/05/21 04:23:49;;;;;;;31.23;18.53;;;7.10;99.90;;;;;;4450694;28;658130;-68
2021/05/21 04:26:38;;;;;;;29.30;18.27;;;7.30;99.90;;;;;;4446247;28;657597;-67
2021/05/21 04:29:25;;;;;;;31.30;19.20;;;7.40;99.90;;;;;;4428210;28;658225;-68
2021/05/21 04:32:12;;;;;;;35.03;20.00;;;7.50;99.90;;;;;;4446801;28;657407;-68
2021/05/21 04:35:00;;;;;;;44.43;22.60;;;7.70;99.90;;;;;;4450234;28;657334;-69
2021/05/21 04:37:46;;;;;;;51.40;25.53;;;7.80;99.90;;;;;;4445927;28;658357;-68
2021/05/21 04:40:34;;;;;;;50.73;24.47;;;8.00;99.90;;;;;;4428081;28;657103;-68
2021/05/21 04:43:26;;;;;;;50.20;25.30;;;8.20;99.90;;;;;;4447760;28;658283;-68
2021/05/21 04:46:13;;;;;;;79.43;33.30;;;8.40;99.90;;;;;;4404872;28;658857;-69
2021/05/21 04:49:00;;;;;;;63.73;28.73;;;8.50;99.90;;;;;;4439432;28;659296;-68
2021/05/21 04:51:47;;;;;;;44.93;23.33;;;8.60;99.90;;;;;;4443769;28;657274;-67
2021/05/21 04:54:34;;;;;;;50.40;24.83;;;8.80;99.90;;;;;;4428501;28;658008;-68
2021/05/21 04:57:21;;;;;;;46.23;22.47;;;9.00;99.90;;;;;;4446860;28;658635;-67
2021/05/21 05:00:10;;;;;;;39.37;19.53;;;9.20;99.90;;;;;;4418318;28;658322;-68
2021/05/21 05:02:57;;;;;;;25.60;13.68;;;9.40;99.90;;;;;;4424559;28;657789;-69
2021/05/21 05:05:45;;;;;;;24.90;13.70;;;9.60;99.90;;;;;;4449953;28;658938;-69
2021/05/21 05:08:32;;;;;;;21.53;11.30;;;9.80;99.90;;;;;;4441419;28;657965;-70
2021/05/21 05:11:19;;;;;;;16.37;9.27;;;9.90;99.90;;;;;;4446468;28;657398;-68
2021/05/21 05:14:07;;;;;;;16.23;8.13;;;10.10;99.90;;;;;;4444876;28;656652;-68
2021/05/21 05:16:55;;;;;;;13.23;7.47;;;10.40;99.90;;;;;;4423183;28;659000;-68
2021/05/21 05:19:42;;;;;;;12.33;7.20;;;10.60;99.90;;;;;;4426851;28;657649;-69
2021/05/21 05:22:29;;;;;;;16.27;7.10;;;10.80;99.90;;;;;;4450617;28;658395;-68
2021/05/21 05:25:16;;;;;;;10.53;6.50;;;11.00;99.90;;;;;;4450487;28;657411;-68
2021/05/21 05:28:04;;;;;;;9.70;6.33;;;11.10;99.90;;;;;;4422891;28;657392;-68
2021/05/21 05:30:51;;;;;;;10.93;6.63;;;11.30;99.90;;;;;;4447485;28;656688;-68
2021/05/21 05:33:40;;;;;;;10.00;5.87;;;11.30;99.90;;;;;;4423674;28;657919;-69
2021/05/21 05:36:27;;;;;;;9.20;6.27;;;11.40;99.90;;;;;;4427378;28;657716;-70
2021/05/21 05:39:14;;;;;;;12.87;6.77;;;11.50;99.90;;;;;;4450170;28;656656;-68
2021/05/21 05:42:01;;;;;;;11.33;6.93;;;11.50;99.90;;;;;;4441450;28;658439;-66
2021/05/21 05:44:48;;;;;;;14.27;6.43;;;11.60;99.90;;;;;;4418502;28;657464;-66
2021/05/21 05:47:35;;;;;;;11.43;6.77;;;11.80;99.90;;;;;;4446073;28;659132;-66
2021/05/21 05:50:24;;;;;;;12.30;6.70;;;11.90;99.90;;;;;;4426769;28;658390;-66
2021/05/21 05:53:11;;;;;;;11.40;6.00;;;12.00;99.90;;;;;;4444813;28;658019;-66
2021/05/21 05:55:58;;;;;;;13.90;6.03;;;12.10;99.90;;;;;;4421939;28;658144;-66
2021/05/21 05:58:45;;;;;;;8.93;5.93;;;12.10;99.90;;;;;;4447701;28;658999;-66
2021/05/21 06:01:32;;;;;;;12.90;5.67;;;12.20;99.90;;;;;;4440025;28;656658;-67
2021/05/21 06:04:19;;;;;;;9.50;6.50;;;12.40;99.90;;;;;;4444611;28;657924;-65
2021/05/21 06:07:07;;;;;;;11.20;6.07;;;12.60;99.90;;;;;;4447320;28;656393;-66
2021/05/21 06:09:54;;;;;;;11.25;6.00;;;12.80;99.90;;;;;;4423706;28;657949;-66
2021/05/21 06:12:43;;;;;;;6.93;5.23;;;12.90;99.90;;;;;;4445295;28;657604;-66
2021/05/21 06:15:33;;;;;;;9.67;5.73;;;13.00;99.90;;;;;;4424344;28;657693;-66
2021/05/21 06:18:20;;;;;;;7.30;4.93;;;13.00;99.90;;;;;;4424775;28;657781;-67
2021/05/21 06:21:08;;;;;;;7.33;4.33;;;12.80;99.90;;;;;;4415298;28;656858;-67
2021/05/21 06:23:55;;;;;;;7.33;4.70;;;12.50;99.90;;;;;;4447173;28;658614;-66
2021/05/21 06:26:44;;;;;;;7.57;4.53;;;12.60;99.90;;;;;;4428341;28;656187;-67
2021/05/21 06:29:31;;;;;;;16.03;4.53;;;12.80;99.90;;;;;;4440634;28;656686;-66
2021/05/21 06:32:18;;;;;;;5.50;3.60;;;13.00;99.90;;;;;;4420146;28;657900;-66
2021/05/21 06:35:07;;;;;;;6.40;4.10;;;13.30;99.90;;;;;;4440728;28;657623;-66
2021/05/21 06:37:54;;;;;;;8.07;3.87;;;13.40;99.90;;;;;;4413648;28;657116;-66
2021/05/21 06:40:42;;;;;;;7.05;3.88;;;13.40;99.90;;;;;;4442513;28;657020;-67
2021/05/21 06:43:29;;;;;;;6.10;3.97;;;13.20;99.90;;;;;;4422946;28;656715;-66
2021/05/21 06:46:16;;;;;;;9.87;4.30;;;13.00;99.90;;;;;;4444386;28;657131;-66
2021/05/21 06:49:09;;;;;;;6.40;4.40;;;12.90;99.90;;;;;;4425014;28;656895;-67
2021/05/21 06:51:56;;;;;;;8.60;4.80;;;12.90;99.90;;;;;;4422346;28;656660;-66
2021/05/21 06:54:44;;;;;;;10.60;4.97;;;12.90;99.90;;;;;;4425255;28;656674;-66
2021/05/21 06:57:32;;;;;;;8.60;4.67;;;13.00;99.90;;;;;;4449275;28;658289;-66
2021/05/21 07:00:20;;;;;;;7.70;4.93;;;13.10;99.90;;;;;;4420863;28;657289;-66
2021/05/21 07:03:07;;;;;;;7.30;4.63;;;13.20;99.90;;;;;;4438967;28;656871;-67
2021/05/21 07:05:55;;;;;;;8.40;5.17;;;13.20;99.90;;;;;;4446988;28;656415;-67
2021/05/21 07:08:41;;;;;;;8.27;5.00;;;13.20;99.90;;;;;;4448904;28;656227;-67
2021/05/21 07:11:28;;;;;;;11.93;5.33;;;13.40;99.90;;;;;;4424199;28;657015;-66
2021/05/21 07:14:16;;;;;;;7.87;5.27;;;13.40;99.90;;;;;;4447813;28;659244;-67
2021/05/21 07:17:04;;;;;;;7.93;4.70;;;13.40;99.90;;;;;;4425049;28;656777;-66
2021/05/21 07:19:51;;;;;;;7.03;5.23;;;13.50;99.90;;;;;;4445981;28;656734;-66
2021/05/21 07:22:38;;;;;;;10.97;5.10;;;13.50;99.90;;;;;;4420483;28;656920;-67
2021/05/21 07:25:25;;;;;;;12.07;5.50;;;13.60;99.90;;;;;;4445802;28;658183;-66
2021/05/21 07:28:12;;;;;;;9.23;5.00;;;13.60;99.90;;;;;;4434590;28;657921;-68
2021/05/21 07:31:00;;;;;;;9.37;4.20;;;13.70;99.90;;;;;;4454442;28;656196;-66
2021/05/21 07:33:48;;;;;;;6.60;4.80;;;13.90;99.90;;;;;;4434969;28;656758;-68
2021/05/21 07:36:35;;;;;;;6.43;3.87;;;14.10;99.90;;;;;;4449942;28;657866;-66
2021/05/21 07:39:24;;;;;;;8.40;3.50;;;14.20;99.90;;;;;;4426636;28;656701;-67
2021/05/21 07:42:12;;;;;;;7.80;3.43;;;14.20;99.90;;;;;;4450319;28;657117;-66
2021/05/21 07:44:58;;;;;;;4.17;2.20;;;14.30;99.90;;;;;;4426430;28;656591;-66
2021/05/21 07:47:46;;;;;;;6.10;2.70;;;14.30;99.90;;;;;;4449861;28;657277;-65
2021/05/21 07:50:37;;;;;;;5.17;2.63;;;14.30;99.90;;;;;;4425626;28;656409;-65
2021/05/21 07:53:25;;;;;;;4.70;2.13;;;14.60;99.90;;;;;;4430823;28;657273;-66
2021/05/21 07:56:12;;;;;;;6.20;2.83;;;14.70;99.90;;;;;;4443721;28;656529;-67
2021/05/21 07:58:59;;;;;;;4.37;2.40;;;14.70;99.90;;;;;;4454076;28;656689;-66
2021/05/21 08:01:46;;;;;;;5.40;2.60;;;14.70;99.90;;;;;;4442013;28;657161;-66
2021/05/21 08:04:34;;;;;;;4.63;2.30;;;14.90;99.90;;;;;;4428822;28;656579;-66
2021/05/21 08:07:21;;;;;;;4.43;2.13;;;15.00;99.90;;;;;;4440099;28;657018;-66
2021/05/21 08:10:10;;;;;;;5.77;2.50;;;15.10;99.90;;;;;;4427726;28;656890;-66
2021/05/21 08:12:57;;;;;;;4.60;2.67;;;15.10;99.90;;;;;;4446844;28;656570;-66
2021/05/21 08:15:44;;;;;;;3.80;2.20;;;15.60;99.90;;;;;;4430794;28;657603;-67
2021/05/21 08:18:31;;;;;;;6.07;2.13;;;15.40;99.90;;;;;;4448390;28;656517;-67
2021/05/21 08:21:19;;;;;;;3.23;2.30;;;15.50;99.90;;;;;;4424696;28;656451;-67
2021/05/21 08:24:07;;;;;;;2.53;2.10;;;15.60;99.90;;;;;;4448931;28;656370;-66
2021/05/21 08:26:54;;;;;;;6.50;1.83;;;15.40;99.90;;;;;;4413127;28;656951;-67
2021/05/21 08:29:41;;;;;;;4.50;2.07;;;15.70;99.90;;;;;;4441619;28;656672;-66
2021/05/21 08:32:28;;;;;;;1.97;1.70;;;15.50;99.90;;;;;;4430013;28;656742;-66
2021/05/21 08:35:15;;;;;;;4.83;1.80;;;15.60;99.90;;;;;;4453859;28;656623;-66
2021/05/21 08:38:03;;;;;;;2.40;1.60;;;16.10;99.90;;;;;;4443442;28;656588;-68
2021/05/21 08:40:50;;;;;;;4.27;1.40;;;16.40;99.90;;;;;;4450826;28;657511;-66
2021/05/21 08:43:41;;;;;;;2.40;1.40;;;16.70;99.90;;;;;;4423066;28;656586;-67
2021/05/21 08:46:28;;;;;;;3.50;1.40;;;16.90;99.90;;;;;;4427817;28;656763;-67
2021/05/21 08:49:16;;;;;;;1.47;1.30;;;17.20;99.90;;;;;;4450879;28;657448;-67
2021/05/21 08:52:03;;;;;;;5.17;1.50;;;17.40;99.90;;;;;;4418876;28;657964;-66
2021/05/21 08:54:51;;;;;;;2.80;1.30;;;17.70;99.90;;;;;;4448890;28;657373;-67
2021/05/21 08:57:38;;;;;;;3.37;1.10;;;17.40;99.90;;;;;;4427490;28;657256;-67
2021/05/21 09:00:26;;;;;;;1.60;1.20;;;17.00;99.90;;;;;;4444459;28;658112;-66
2021/05/21 09:03:22;;;;;;;5.60;1.30;;;16.60;99.90;;;;;;4418087;28;656954;-67
2021/05/21 09:06:14;;;;;;;3.03;1.40;;;17.00;99.90;;;;;;4429817;28;657086;-67
2021/05/21 09:09:01;;;;;;;1.67;0.90;;;17.30;99.90;;;;;;4421153;28;656749;-66
2021/05/21 09:11:50;;;;;;;4.50;1.00;;;17.80;99.90;;;;;;4428794;28;657242;-66
2021/05/21 09:14:37;;;;;;;1.90;1.17;;;17.60;99.90;;;;;;4438613;28;657517;-68
2021/05/21 09:17:24;;;;;;;3.03;1.10;;;18.00;99.90;;;;;;4452360;28;656513;-66
2021/05/21 09:20:20;;;;;;;3.10;1.00;;;18.30;99.90;;;;;;4446924;28;657181;-66
2021/05/21 09:23:08;;;;;;;1.50;1.10;;;18.30;97.50;;;;;;4404763;28;656888;-67
2021/05/21 09:25:55;;;;;;;3.63;1.00;;;18.50;97.80;;;;;;4447053;28;657639;-67
2021/05/21 09:28:44;;;;;;;2.70;1.13;;;18.70;98.20;;;;;;4440656;28;657170;-68
2021/05/21 09:31:31;;;;;;;1.77;1.30;;;19.10;96.00;;;;;;4435887;28;657075;-67
2021/05/21 09:34:30;;;;;;;5.15;1.17;;;18.80;94.50;;;;;;4419565;28;656603;-67
2021/05/21 09:37:21;;;;;;;1.33;1.10;;;18.80;93.30;;;;;;4408905;28;657143;-68
2021/05/21 09:40:19;;;;;;;1.00;0.90;;;18.60;93.20;;;;;;4418384;28;656510;-67
2021/05/21 09:43:06;;;;;;;1.93;0.93;;;18.50;91.70;;;;;;4424395;28;657228;-66
2021/05/21 09:45:54;;;;;;;1.67;0.90;;;18.60;91.20;;;;;;4428744;28;656513;-66
2021/05/21 09:48:41;;;;;;;1.70;1.10;;;18.60;91.00;;;;;;4450526;28;656858;-67
2021/05/21 09:51:33;;;;;;;3.33;1.33;;;18.80;91.10;;;;;;4419099;28;656671;-67
2021/05/21 09:54:20;;;;;;;3.30;1.00;;;18.90;90.60;;;;;;4421570;28;657615;-67
2021/05/21 09:57:09;;;;;;;1.03;0.93;;;19.10;88.50;;;;;;4452198;28;656605;-66
2021/05/21 09:59:56;;;;;;;4.43;0.80;;;18.80;85.10;;;;;;4443214;28;657447;-65
2021/05/21 10:02:45;;;;;;;3.33;1.00;;;18.60;84.20;;;;;;4412956;28;656504;-65
2021/05/21 10:05:32;;;;;;;2.20;0.90;;;18.70;88.00;;;;;;4430499;28;656282;-65
2021/05/21 10:08:19;;;;;;;1.17;0.83;;;19.10;87.90;;;;;;4412212;28;656635;-65
2021/05/21 10:11:06;;;;;;;2.33;1.13;;;19.40;90.20;;;;;;4446479;28;657210;-65
2021/05/21 10:13:53;;;;;;;3.73;1.10;;;19.20;87.30;;;;;;4427286;28;656908;-65
2021/05/21 10:16:40;;;;;;;0.77;0.70;;;19.30;88.70;;;;;;4444750;28;658298;-65
2021/05/21 10:19:27;;;;;;;1.10;0.80;;;18.90;86.20;;;;;;4432517;28;656750;-65
2021/05/21 10:22:16;;;;;;;2.73;1.00;;;18.60;88.50;;;;;;4417297;28;657395;-66
2021/05/21 10:25:06;;;;;;;2.93;0.87;;;18.80;85.70;;;;;;4421936;28;656346;-65
2021/05/21 10:27:55;;;;;;;1.13;0.80;;;19.20;86.00;;;;;;4426839;28;656937;-67
2021/05/21 10:30:42;;;;;;;2.53;0.83;;;19.30;83.10;;;;;;4436414;28;656602;-68
2021/05/21 10:33:32;;;;;;;1.73;0.90;;;19.30;79.70;;;;;;4446984;28;656074;-66
2021/05/21 10:36:28;;;;;;;3.80;0.90;;;19.60;87.00;;;;;;4427323;28;657757;-66
2021/05/21 10:39:16;;;;;;;1.97;0.70;;;20.20;89.20;;;;;;4418385;28;657011;-67
2021/05/21 10:42:18;;;;;;;4.63;0.80;;;20.30;77.00;;;;;;4428207;28;656988;-66
2021/05/21 10:45:23;;;;;;;1.07;0.60;;;20.60;82.50;;;;;;4420584;28;657016;-67
2021/05/21 10:48:10;;;;;;;3.33;0.70;;;20.50;72.80;;;;;;4416019;28;657594;-66
2021/05/21 10:51:07;;;;;;;4.13;0.60;;;20.20;73.90;;;;;;4421297;28;656866;-68
2021/05/21 10:54:39;;;;;;;1.43;0.70;;;20.20;74.80;;;;;;4406838;28;657118;-66
2021/05/21 10:57:27;;;;;;;0.83;0.60;;;20.60;74.50;;;;;;4389561;28;657219;-68
2021/05/21 11:00:15;;;;;;;1.80;0.80;;;20.80;69.30;;;;;;4427489;28;656972;-67
2021/05/21 11:03:02;;;;;;;1.63;0.80;;;21.00;69.70;;;;;;4432203;28;656849;-68
2021/05/21 11:05:49;;;;;;;1.87;0.80;;;21.10;70.00;;;;;;4450533;28;656934;-67
2021/05/21 11:08:43;;;;;;;1.40;0.80;;;21.30;72.90;;;;;;4445901;28;656652;-67
2021/05/21 11:11:53;;;;;;;1.30;0.87;;;20.60;70.30;;;;;;4422440;28;657138;-67
2021/05/21 11:14:42;;;;;;;4.43;1.07;;;20.00;71.10;;;;;;4413777;28;656705;-66
2021/05/21 11:17:29;;;;;;;3.23;0.93;;;19.50;71.00;;;;;;4420523;28;656916;-67
2021/05/21 11:20:16;;;;;;;1.30;0.73;;;19.10;71.50;;;;;;4446579;28;657177;-67
2021/05/21 11:23:03;;;;;;;1.60;0.70;;;18.90;73.10;;;;;;4416238;28;656254;-68
2021/05/21 11:26:25;;;;;;;1.30;0.80;;;19.40;75.10;;;;;;4447948;28;658385;-67
2021/05/21 11:29:13;;;;;;;2.83;0.90;;;19.60;72.20;;;;;;4404107;28;657393;-67
2021/05/21 11:32:01;;;;;;;1.00;0.73;;;19.70;75.10;;;;;;4438173;28;658215;-67
2021/05/21 11:34:48;;;;;;;3.53;0.90;;;19.80;72.70;;;;;;4425673;28;656771;-66
2021/05/21 11:37:35;;;;;;;1.73;0.90;;;19.60;77.00;;;;;;4446588;28;657242;-67
2021/05/21 11:40:22;;;;;;;1.03;0.93;;;19.50;75.60;;;;;;4419040;28;658024;-68
2021/05/21 11:43:09;;;;;;;2.00;1.00;;;19.60;74.90;;;;;;4451456;28;656651;-66
2021/05/21 11:45:57;;;;;;;1.73;1.10;;;19.60;72.40;;;;;;4450395;28;656259;-67
2021/05/21 11:48:46;;;;;;;1.77;1.00;;;19.70;77.10;;;;;;4422440;28;656856;-67
2021/05/21 11:51:33;;;;;;;5.93;1.00;;;20.00;73.50;;;;;;4420621;28;657281;-67
2021/05/21 11:54:21;;;;;;;2.93;1.30;;;20.10;76.10;;;;;;4454968;28;657900;-67
2021/05/21 11:57:09;;;;;;;3.30;1.40;;;20.30;74.70;;;;;;4430421;28;656255;-67
2021/05/21 11:59:56;;;;;;;4.10;1.10;;;20.20;74.50;;;;;;4451473;28;657156;-67
2021/05/21 12:02:45;;;;;;;3.37;1.20;;;20.30;78.90;;;;;;4421603;28;657236;-68
2021/05/21 12:05:33;;;;;;;1.93;1.23;;;20.50;74.70;;;;;;4432546;28;656383;-68
2021/05/21 12:08:23;;;;;;;1.50;1.07;;;21.20;75.50;;;;;;4449273;28;658103;-66
2021/05/21 12:11:10;;;;;;;3.60;1.00;;;21.30;73.80;;;;;;4424593;28;657593;-67
2021/05/21 12:14:00;;;;;;;1.67;1.03;;;21.60;70.90;;;;;;4422202;28;656639;-68
2021/05/21 12:16:48;;;;;;;1.67;1.00;;;21.30;71.40;;;;;;4430439;28;656693;-68
2021/05/21 12:19:35;;;;;;;1.83;1.10;;;21.50;72.20;;;;;;4448754;28;657872;-67
2021/05/21 12:22:23;;;;;;;2.40;1.37;;;21.50;71.70;;;;;;4438849;28;656818;-68
2021/05/21 12:25:18;;;;;;;4.87;1.00;;;21.50;70.80;;;;;;4442347;28;656683;-67
2021/05/21 12:28:05;;;;;;;2.80;1.13;;;21.20;69.90;;;;;;4395821;28;656873;-67
2021/05/21 12:30:52;;;;;;;1.67;1.07;;;21.20;69.30;;;;;;4440459;28;656877;-69
2021/05/21 12:33:40;;;;;;;3.47;1.50;;;21.40;72.10;;;;;;4448612;28;656136;-67
2021/05/21 12:36:28;;;;;;;1.20;0.90;;;21.70;70.30;;;;;;4423741;28;656537;-68
2021/05/21 12:39:16;;;;;;;1.10;1.00;;;21.30;67.00;;;;;;4449459;28;657256;-67
2021/05/21 12:42:03;;;;;;;2.97;0.80;;;21.10;68.50;;;;;;4425233;28;656750;-67
2021/05/21 12:44:51;;;;;;;4.43;1.13;;;21.00;70.80;;;;;;4453543;28;657521;-67
2021/05/21 12:47:44;;;;;;;2.20;1.10;;;20.70;67.90;;;;;;4424655;28;656685;-67
2021/05/21 12:50:32;;;;;;;2.83;1.17;;;20.70;70.40;;;;;;4425196;28;656822;-67
2021/05/21 12:53:19;;;;;;;3.80;0.97;;;21.10;69.80;;;;;;4423592;28;657107;-67
2021/05/21 12:56:07;;;;;;;4.53;1.00;;;21.10;68.30;;;;;;4447420;28;657190;-67
2021/05/21 12:58:54;;;;;;;2.77;0.90;;;21.30;70.10;;;;;;4427989;28;657583;-67
2021/05/21 13:01:42;;;;;;;1.63;1.00;;;21.40;66.20;;;;;;4447587;28;656701;-67
2021/05/21 13:04:29;;;;;;;3.83;1.10;;;21.20;66.00;;;;;;4428426;28;658054;-67
2021/05/21 13:07:16;;;;;;;3.33;0.90;;;21.00;66.90;;;;;;4441587;28;656594;-67
2021/05/21 13:10:04;;;;;;;2.40;1.00;;;21.00;65.30;;;;;;4423180;28;656948;-67
2021/05/21 13:12:53;;;;;;;1.13;0.80;;;20.80;65.40;;;;;;4450456;28;656424;-67
2021/05/21 13:15:41;;;;;;;4.40;0.90;;;20.80;66.80;;;;;;4419490;28;657803;-67
2021/05/21 13:18:28;;;;;;;1.33;0.73;;;21.00;70.70;;;;;;4428665;28;657356;-66
2021/05/21 13:21:15;;;;;;;1.47;0.80;;;21.30;68.30;;;;;;4452737;28;657801;-67
2021/05/21 13:24:07;;;;;;;3.83;0.80;;;21.60;66.60;;;;;;4425302;28;657163;-68
2021/05/21 13:26:54;;;;;;;3.47;1.17;;;21.40;63.40;;;;;;4425106;28;657348;-67
2021/05/21 13:29:42;;;;;;;1.87;0.77;;;21.20;65.60;;;;;;4446766;28;657266;-67
2021/05/21 13:32:29;;;;;;;4.00;0.90;;;21.00;65.50;;;;;;4418959;28;657689;-66
2021/05/21 13:35:16;;;;;;;2.23;0.80;;;20.90;62.70;;;;;;4445468;28;656134;-67
2021/05/21 13:38:03;;;;;;;2.93;0.70;;;20.60;62.40;;;;;;4429604;28;656945;-68
2021/05/21 13:40:50;;;;;;;1.40;0.80;;;20.80;65.00;;;;;;4448602;28;657243;-67
2021/05/21 13:43:37;;;;;;;1.00;0.80;;;20.50;63.00;;;;;;4429450;28;656595;-67
2021/05/21 13:46:25;;;;;;;3.30;0.90;;;20.10;63.30;;;;;;4447537;28;658169;-67
2021/05/21 13:49:12;;;;;;;5.43;0.93;;;20.10;68.40;;;;;;4423632;28;656271;-65
2021/05/21 13:52:00;;;;;;;4.73;0.83;;;19.80;63.90;;;;;;4450213;28;657108;-66
2021/05/21 13:54:47;;;;;;;3.97;0.80;;;19.60;66.40;;;;;;4428360;28;656662;-66
2021/05/21 13:57:34;;;;;;;10.13;1.13;;;19.60;66.10;;;;;;4439715;28;658033;-65
2021/05/21 14:00:21;;;;;;;5.80;1.30;;;19.40;65.60;;;;;;4432573;28;657938;-65
2021/05/21 14:03:09;;;;;;;2.73;0.90;;;19.40;67.10;;;;;;4425028;28;656644;-65
2021/05/21 14:05:57;;;;;;;4.23;1.20;;;19.40;66.20;;;;;;4441517;28;656770;-65
2021/05/21 14:08:43;;;;;;;9.10;1.50;;;19.40;67.00;;;;;;4428507;28;656507;-65
2021/05/21 14:11:31;;;;;;;4.63;1.30;;;19.40;68.00;;;;;;4446779;28;657237;-65
2021/05/21 14:14:17;;;;;;;3.03;1.07;;;19.30;67.90;;;;;;4427157;28;656537;-66
2021/05/21 14:17:05;;;;;;;4.00;0.83;;;19.30;66.80;;;;;;4444748;28;657759;-65
2021/05/21 14:19:52;;;;;;;2.10;1.17;;;19.30;66.70;;;;;;4447489;28;656871;-65